Aviation Digital Data Service (ADDS)

Output produced by TAFs form (2028 UTC 12 February 2016)
found at http://aviationweather.gov/adds/tafs/
 
KRIL 121720Z 1218/1318 00000KT P6SM FEW250